Mokshan, Russia
Current Conditions -  °F | °C
As of 3:00 PM on Tuesday 21 Oct 2014 (Local Time) from UWSS Reporting Station
Haze Haze  
Wind Chill: 50°   Ceiling: 1200
Heat Index: 50°   Visibility: 2.5mi
Dew Point: 50°   Wind: 7mph
Humidity: 100%   Direction: 210°SSW
Pressure: 29.47"   Gusts: NA
Location:  53.44°N, 44.62°E
Report Text: UWSS 211200Z 21003MPS 4000 BR OVC012 10/10 Q0998 3019//60 NOSIGRMK QFE735
Loading
Personal Weather Stations






























Interactive Weather Map
Tropical Storm Tracking
New forecast layout! Learn more

10-Day Weather Forecast

Advertisements
Track Severe Weather on mobile